Aeroporto :
LOGIN :

Iscrizione | Disclaimer

   EN    FR    IT 

 










Sommario :    VFR   VFR Marginale   IFR   IFR Intensivo   IFR Molto Intensivo
Visibilità : 
Base nubi : 
>= 8 km
>= 3000ft
5 / 8 km
1000 / 3000 ft
1500m / 5 km
500 / 1000 ft
800 / 1500m
200 / 500 ft
< 800m
< 200 ft
Simboli :   Temporali  Nebbia  Neve Forte  Precipitazioni Forti  Vento > 20 kt
SIGMETs :   Varie  Temporali  Ghiacco  Turbolenza  Onda orograficha  Ceneri Vulcaniche






- Altitudine del aeroporto : 1708 ft
- Codice IATA : SJJ


LQSA - Sarajevo

ULTIMO METAR :
  • 221430Z VRB02KT 7000 NSC 01/M04 Q1029 NOSIG

METARs OBSOLETI :
  • 221400Z VRB01KT 7000 NSC 02/M05 Q1029 NOSIG
  • 221330Z VRB01KT 7000 NSC 02/M05 Q1030 NOSIG
  • 221300Z VRB01KT 6000 NSC 01/M05 Q1030 NOSIG
  • 221230Z VRB01KT 6000 NSC 00/M04 Q1031 NOSIG
  • 221200Z VRB01KT 4000 BR NSC M01/M04 Q1032 TEMPO 6000 NSW

TAF TAF LQSA
Valido dal 22 a 12 ore il 23 a 12 ore UTC


221100Z 2212/2312 VRB02KT 2000 BR NSC TX00/2213Z TNM06/2305Z
TEMPO 2212/2218 4000
PROB30
TEMPO 2213/2216 6000 NSW
TEMPO 2220/2309 0600 FZFG BKN002
PROB30 2305/2307 0300 BKN001
BECMG 2309/2311 4000



MetMap, La meteo Aeronautica in un colpo d'occhio ! - Copyright ORBIFLY Dicembre 2007 - Disclaimer

ORBIFLY MET'MAP TEAM :

Programmazione e sviluppo : Alexandra Zaïnal
Concezione : Baudouin d'Aumeries
Aiuto per la programmazione : Marc-Olivier Méhu
Supporto tecnico e logistico : Manuel Goepfert
Aiuto per la traduzione : Arnaldo La Scala

Contatto : metmap@orbifly.com




FONTI E CREDITI :

   NOAA